createdAt,value
2023-05-03T00:01:23.355Z,11.57
2023-05-03T00:03:52.139Z,14.80
2023-05-03T00:06:19.805Z,11.27
2023-05-03T00:08:46.481Z,12.43
2023-05-03T00:11:13.072Z,14.02
2023-05-03T00:13:39.406Z,12.65
2023-05-03T00:16:06.344Z,13.60
2023-05-03T00:18:33.046Z,11.40
2023-05-03T00:20:59.796Z,12.98
2023-05-03T00:23:26.720Z,12.77
2023-05-03T00:25:57.028Z,12.52
2023-05-03T00:28:24.126Z,12.30
2023-05-03T00:30:50.744Z,17.65
2023-05-03T00:33:17.575Z,12.48
2023-05-03T00:35:44.728Z,14.68
2023-05-03T00:38:14.148Z,13.75
2023-05-03T00:40:40.996Z,13.73
2023-05-03T00:43:07.799Z,15.40
2023-05-03T00:45:34.813Z,14.40
2023-05-03T00:48:02.317Z,16.80
2023-05-03T00:50:31.075Z,14.88
2023-05-03T00:52:58.251Z,13.32
2023-05-03T00:55:28.457Z,14.60
2023-05-03T00:57:55.448Z,12.05
2023-05-03T01:00:22.500Z,17.02
2023-05-03T01:02:49.468Z,12.73
2023-05-03T01:05:16.729Z,13.38
2023-05-03T01:08:07.013Z,12.07
2023-05-03T01:10:48.696Z,14.48
2023-05-03T01:13:23.440Z,14.85
2023-05-03T01:15:54.874Z,16.70
2023-05-03T01:18:24.251Z,16.33
2023-05-03T01:20:51.433Z,15.00
2023-05-03T01:23:32.994Z,16.35
2023-05-03T01:26:14.316Z,13.48
2023-05-03T01:28:41.338Z,14.95
2023-05-03T01:31:07.779Z,10.73
2023-05-03T01:33:40.896Z,13.65
2023-05-03T01:36:16.712Z,16.42
2023-05-03T01:38:43.310Z,13.23
2023-05-03T01:41:11.875Z,11.57
2023-05-03T01:43:38.952Z,12.20
2023-05-03T01:46:05.668Z,12.60
2023-05-03T01:48:32.982Z,14.20
2023-05-03T01:51:00.712Z,11.20
2023-05-03T01:53:27.454Z,15.02
2023-05-03T01:55:54.120Z,11.52
2023-05-03T01:58:20.690Z,14.85
2023-05-03T02:00:50.425Z,11.85
2023-05-03T02:03:18.226Z,13.32
2023-05-03T02:05:45.944Z,10.48
2023-05-03T02:08:12.649Z,10.50
2023-05-03T02:10:39.258Z,16.08
2023-05-03T02:13:05.910Z,10.82
2023-05-03T02:15:32.877Z,11.35
2023-05-03T02:18:02.308Z,9.25
2023-05-03T02:20:29.232Z,14.07
2023-05-03T02:22:56.072Z,11.80
2023-05-03T02:25:22.679Z,18.50
2023-05-03T02:27:52.414Z,13.65
2023-05-03T02:30:19.451Z,13.55
2023-05-03T02:32:46.561Z,14.13
2023-05-03T02:35:13.767Z,11.52
2023-05-03T02:37:40.475Z,13.30
2023-05-03T02:40:11.180Z,12.00
2023-05-03T02:42:37.975Z,11.00
2023-05-03T02:45:08.336Z,10.10
2023-05-03T02:47:34.974Z,14.77
2023-05-03T02:50:01.846Z,8.10
2023-05-03T02:52:30.685Z,11.93
2023-05-03T02:54:57.387Z,13.63
2023-05-03T02:57:24.071Z,13.88
2023-05-03T02:59:50.811Z,12.20
2023-05-03T03:02:17.353Z,14.90
2023-05-03T03:04:43.804Z,13.25
2023-05-03T03:07:10.521Z,13.30
2023-05-03T03:09:37.195Z,12.05
2023-05-03T03:12:04.043Z,12.45
2023-05-03T03:14:32.014Z,12.13
2023-05-03T03:16:58.509Z,15.88
2023-05-03T03:19:25.843Z,11.25
2023-05-03T03:21:53.587Z,12.18
2023-05-03T03:24:19.986Z,13.50
2023-05-03T03:26:47.303Z,10.38
2023-05-03T03:29:13.842Z,11.70
2023-05-03T03:31:43.165Z,15.43
2023-05-03T03:34:09.639Z,11.23
2023-05-03T03:36:38.010Z,11.02
2023-05-03T03:39:06.269Z,13.38
2023-05-03T03:41:35.032Z,12.98
2023-05-03T03:44:02.873Z,13.88
2023-05-03T03:46:29.669Z,12.65
2023-05-03T03:48:58.161Z,17.73
2023-05-03T03:51:28.459Z,13.00
2023-05-03T03:53:55.634Z,14.77
2023-05-03T03:56:25.556Z,19.48
2023-05-03T03:58:56.412Z,13.00
2023-05-03T04:01:23.595Z,10.52
2023-05-03T04:03:51.899Z,17.13
2023-05-03T04:06:18.504Z,14.32
2023-05-03T04:08:46.398Z,17.85
2023-05-03T04:11:14.579Z,14.45
2023-05-03T04:13:49.680Z,13.35
2023-05-03T04:16:17.188Z,14.18
2023-05-03T04:18:44.774Z,15.05
2023-05-03T04:21:11.367Z,11.50
2023-05-03T04:23:38.242Z,13.50
2023-05-03T04:26:07.552Z,13.65
2023-05-03T04:28:40.234Z,14.52
2023-05-03T04:31:07.141Z,13.40
2023-05-03T04:33:36.297Z,12.30
2023-05-03T04:36:08.610Z,13.82
2023-05-03T04:38:37.134Z,14.32
2023-05-03T04:41:03.710Z,12.65
2023-05-03T04:43:30.741Z,12.80
2023-05-03T04:45:58.579Z,14.45
2023-05-03T04:48:27.174Z,15.60
2023-05-03T04:50:53.584Z,11.98
2023-05-03T04:53:22.324Z,18.27
2023-05-03T04:55:59.076Z,16.42
2023-05-03T04:58:26.700Z,11.75
2023-05-03T05:00:54.191Z,11.85
2023-05-03T05:03:31.464Z,11.75
2023-05-03T05:06:00.971Z,10.07
2023-05-03T05:08:27.948Z,10.07
2023-05-03T05:10:57.435Z,12.95
2023-05-03T05:13:29.409Z,9.60
2023-05-03T05:15:56.928Z,14.05
2023-05-03T05:18:23.390Z,9.77
2023-05-03T05:20:51.302Z,10.90
2023-05-03T05:23:19.509Z,11.93
2023-05-03T05:25:47.739Z,11.88
2023-05-03T05:28:14.349Z,12.13
2023-05-03T05:30:42.042Z,10.73
2023-05-03T05:33:08.497Z,8.52
2023-05-03T05:35:35.584Z,9.57
2023-05-03T05:38:04.033Z,9.73
2023-05-03T05:40:31.140Z,8.93
2023-05-03T05:42:59.351Z,9.48
2023-05-03T05:45:29.917Z,7.57
2023-05-03T05:47:57.250Z,9.13
2023-05-03T05:50:24.614Z,8.20
2023-05-03T05:52:56.770Z,5.63
2023-05-03T05:55:26.690Z,12.57
2023-05-03T05:57:55.308Z,12.02
2023-05-03T06:00:26.376Z,8.45
2023-05-03T06:02:53.096Z,12.13
2023-05-03T06:05:21.615Z,8.30
2023-05-03T06:07:48.587Z,10.98
2023-05-03T06:10:15.021Z,9.30
2023-05-03T06:12:45.965Z,10.95
2023-05-03T06:15:17.533Z,7.03
2023-05-03T06:17:46.231Z,8.15
2023-05-03T06:20:13.123Z,7.70
2023-05-03T06:22:42.053Z,7.40
2023-05-03T06:25:16.218Z,8.40
2023-05-03T06:27:47.709Z,11.43
2023-05-03T06:30:14.498Z,8.10
2023-05-03T06:32:42.387Z,8.52
2023-05-03T06:35:12.184Z,6.55
2023-05-03T06:37:40.061Z,10.15
2023-05-03T06:40:09.977Z,6.30
2023-05-03T06:42:36.789Z,7.97
2023-05-03T06:45:08.305Z,12.63
2023-05-03T06:47:37.507Z,11.65
2023-05-03T06:50:06.494Z,6.43
2023-05-03T06:52:33.945Z,13.52
2023-05-03T06:55:01.257Z,7.60
2023-05-03T06:57:28.968Z,6.68
2023-05-03T06:59:55.586Z,9.40
2023-05-03T07:02:22.803Z,8.27
2023-05-03T07:04:49.709Z,7.00
2023-05-03T07:07:16.169Z,8.05
2023-05-03T07:09:43.823Z,9.07
2023-05-03T07:12:10.953Z,10.52
2023-05-03T07:14:38.347Z,8.40
2023-05-03T07:17:04.681Z,7.57
2023-05-03T07:19:31.362Z,6.70
2023-05-03T07:21:58.424Z,6.10
2023-05-03T07:24:25.975Z,5.35
2023-05-03T07:26:53.071Z,5.57
2023-05-03T07:29:19.674Z,4.38
2023-05-03T07:31:48.948Z,5.15
2023-05-03T07:34:17.337Z,6.75
2023-05-03T07:36:43.802Z,5.20
2023-05-03T07:39:10.792Z,5.90
2023-05-03T07:41:37.767Z,6.93
2023-05-03T07:44:04.559Z,5.60
2023-05-03T07:46:34.987Z,4.80
2023-05-03T07:49:01.959Z,6.57
2023-05-03T07:51:29.178Z,7.35
2023-05-03T07:53:59.022Z,7.18
2023-05-03T07:56:27.092Z,6.65
2023-05-03T07:59:04.658Z,5.40
2023-05-03T08:01:35.634Z,4.72
2023-05-03T08:04:02.418Z,6.95
2023-05-03T08:06:29.582Z,4.75
2023-05-03T08:08:56.222Z,5.57
2023-05-03T08:11:22.555Z,6.30
2023-05-03T08:13:49.178Z,7.03
2023-05-03T08:16:16.724Z,12.25
2023-05-03T08:18:43.517Z,7.07
2023-05-03T08:21:12.395Z,6.75
2023-05-03T08:23:39.341Z,7.00
2023-05-03T08:26:10.565Z,5.10
2023-05-03T08:28:38.139Z,7.00
2023-05-03T08:31:08.282Z,6.35
2023-05-03T08:33:35.041Z,8.95
2023-05-03T08:36:01.962Z,6.10
2023-05-03T08:38:30.683Z,7.88
2023-05-03T08:40:59.307Z,5.68
2023-05-03T08:43:28.339Z,7.80
2023-05-03T08:45:55.122Z,7.63
2023-05-03T08:48:22.092Z,7.97
2023-05-03T08:50:49.834Z,6.40
2023-05-03T08:53:16.297Z,8.27
2023-05-03T08:55:44.758Z,6.97
2023-05-03T08:58:14.989Z,5.85
2023-05-03T09:00:45.371Z,7.78
2023-05-03T09:03:12.365Z,5.93
2023-05-03T09:05:40.458Z,6.95
2023-05-03T09:08:11.833Z,8.48
2023-05-03T09:10:39.754Z,6.43
2023-05-03T09:13:07.916Z,6.38
2023-05-03T09:15:34.810Z,7.05
2023-05-03T09:18:07.735Z,6.20
2023-05-03T09:20:35.069Z,5.87
2023-05-03T09:23:01.790Z,13.15
2023-05-03T09:26:01.532Z,8.52
2023-05-03T09:28:28.202Z,10.23
2023-05-03T09:31:07.648Z,8.73
2023-05-03T09:33:34.525Z,8.07
2023-05-03T09:36:01.945Z,10.27
2023-05-03T09:38:30.989Z,7.80
2023-05-03T09:40:57.999Z,8.80
2023-05-03T09:43:24.503Z,8.73
2023-05-03T09:45:51.203Z,7.85
2023-05-03T09:48:18.863Z,11.48
2023-05-03T09:50:45.840Z,8.93
2023-05-03T09:53:13.386Z,7.78
2023-05-03T09:55:40.132Z,10.18
2023-05-03T09:58:08.010Z,10.35
2023-05-03T10:00:37.130Z,11.48
2023-05-03T10:03:06.956Z,10.15
2023-05-03T10:05:36.266Z,10.40
2023-05-03T10:08:04.437Z,8.73
2023-05-03T10:10:32.382Z,9.05
2023-05-03T10:12:59.806Z,11.38
2023-05-03T10:15:27.811Z,7.88
2023-05-03T10:17:57.832Z,8.73
2023-05-03T10:20:31.171Z,8.05
2023-05-03T10:23:13.582Z,10.27
2023-05-03T10:26:00.523Z,9.80
2023-05-03T10:28:27.346Z,7.90
2023-05-03T10:30:54.048Z,10.20
2023-05-03T10:33:21.910Z,8.57
2023-05-03T10:35:55.072Z,10.77
2023-05-03T10:40:48.680Z,10.52
2023-05-03T10:43:30.672Z,9.77
2023-05-03T10:46:01.046Z,11.60
2023-05-03T10:48:28.885Z,7.53
2023-05-03T10:50:56.536Z,10.23
2023-05-03T10:53:36.768Z,9.63
2023-05-03T10:56:11.226Z,10.48
2023-05-03T10:58:38.984Z,8.18
2023-05-03T11:01:06.975Z,5.90
2023-05-03T11:03:38.983Z,8.18
2023-05-03T11:06:07.773Z,7.90
2023-05-03T11:08:37.414Z,9.27
2023-05-03T11:11:09.832Z,9.40
2023-05-03T11:13:37.401Z,9.82
2023-05-03T11:16:06.067Z,6.65
2023-05-03T11:18:32.787Z,6.72
2023-05-03T11:20:59.543Z,7.30
2023-05-03T11:23:30.969Z,9.30
2023-05-03T11:26:00.553Z,8.27
2023-05-03T11:28:26.914Z,6.47
2023-05-03T11:30:53.841Z,6.63
2023-05-03T11:33:20.619Z,8.50
2023-05-03T11:35:47.018Z,11.15
2023-05-03T11:38:14.017Z,7.38
2023-05-03T11:40:41.484Z,7.40
2023-05-03T11:43:08.184Z,8.05
2023-05-03T11:45:41.414Z,10.88
2023-05-03T11:48:08.156Z,8.48
2023-05-03T11:50:45.847Z,8.13
2023-05-03T11:53:13.147Z,12.65
2023-05-03T11:55:43.907Z,10.95
2023-05-03T11:58:17.882Z,7.00
2023-05-03T12:00:48.442Z,9.20
2023-05-03T12:03:23.212Z,8.52
2023-05-03T12:05:54.429Z,10.70
2023-05-03T12:08:23.191Z,9.20
2023-05-03T12:10:55.172Z,6.38
2023-05-03T12:13:30.625Z,6.80
2023-05-03T12:26:00.960Z,7.10
2023-05-03T12:28:27.668Z,5.35
2023-05-03T12:30:55.696Z,6.22
2023-05-03T12:33:24.119Z,7.38
2023-05-03T12:35:53.420Z,8.95
2023-05-03T12:38:23.633Z,9.10
2023-05-03T12:40:53.908Z,6.65
2023-05-03T12:43:21.064Z,6.68
2023-05-03T12:45:56.306Z,6.38
2023-05-03T12:48:34.720Z,7.63
2023-05-03T12:51:18.654Z,4.97
2023-05-03T12:53:54.527Z,7.13
2023-05-03T12:56:25.706Z,5.03
2023-05-03T12:59:19.281Z,7.53
2023-05-03T13:04:37.005Z,7.35
2023-05-03T13:06:59.497Z,4.78
2023-05-03T13:09:38.026Z,6.60
2023-05-03T13:12:14.765Z,4.18
2023-05-03T13:14:43.512Z,5.22
2023-05-03T13:17:12.063Z,5.22
2023-05-03T13:19:38.855Z,5.65
2023-05-03T13:22:05.575Z,6.28
2023-05-03T13:24:36.231Z,4.72
2023-05-03T13:27:02.803Z,5.13
2023-05-03T13:29:30.829Z,4.30
2023-05-03T13:31:58.097Z,4.07
2023-05-03T13:34:24.565Z,3.60
2023-05-03T13:36:51.252Z,6.75
2023-05-03T13:39:19.244Z,5.57
2023-05-03T13:41:48.106Z,7.72
2023-05-03T13:44:14.954Z,6.85
2023-05-03T13:46:43.863Z,5.25
2023-05-03T13:49:10.763Z,5.68
2023-05-03T13:51:37.876Z,4.80
2023-05-03T13:54:05.309Z,4.07
2023-05-03T13:56:31.939Z,6.35
2023-05-03T13:58:58.430Z,4.65
2023-05-03T14:01:25.230Z,4.25
2023-05-03T14:03:52.047Z,4.82
2023-05-03T14:06:20.439Z,5.78
2023-05-03T14:08:47.313Z,5.78
2023-05-03T14:11:14.553Z,3.92
2023-05-03T14:13:55.579Z,3.70
2023-05-03T14:16:36.374Z,3.85
2023-05-03T14:19:07.480Z,10.43
2023-05-03T14:21:34.191Z,4.93
2023-05-03T14:24:03.388Z,4.85
2023-05-03T14:26:30.443Z,4.38
2023-05-03T14:28:57.004Z,6.47
2023-05-03T14:31:23.662Z,4.55
2023-05-03T14:33:50.377Z,6.90
2023-05-03T14:36:16.895Z,4.53
2023-05-03T14:38:45.129Z,7.03
2023-05-03T14:41:11.978Z,5.00
2023-05-03T14:43:39.557Z,4.70
2023-05-03T14:46:06.193Z,5.60
2023-05-03T14:48:33.177Z,4.47
2023-05-03T14:50:59.717Z,4.60
2023-05-03T14:53:26.185Z,5.32
2023-05-03T14:55:53.998Z,6.97
2023-05-03T14:58:20.720Z,6.88
2023-05-03T15:00:48.044Z,5.35
2023-05-03T15:03:14.689Z,5.25
2023-05-03T15:05:44.299Z,3.80
2023-05-03T15:08:11.332Z,6.75
2023-05-03T15:10:38.225Z,6.70
2023-05-03T15:13:06.461Z,6.40
2023-05-03T15:15:33.041Z,7.75
2023-05-03T15:17:59.664Z,3.95
2023-05-03T15:20:26.326Z,5.78
2023-05-03T15:22:52.817Z,7.18
2023-05-03T15:25:19.358Z,10.27
2023-05-03T15:27:46.112Z,5.45
2023-05-03T15:30:14.678Z,6.30
2023-05-03T15:32:41.347Z,4.25
2023-05-03T15:35:07.953Z,4.40
2023-05-03T15:37:36.920Z,8.45
2023-05-03T15:40:09.446Z,6.47
2023-05-03T15:42:36.564Z,5.68
2023-05-03T15:45:03.625Z,5.72
2023-05-03T15:47:30.414Z,5.22
2023-05-03T15:49:58.041Z,6.65
2023-05-03T15:52:25.630Z,5.47
2023-05-03T15:54:51.980Z,7.07
2023-05-03T15:57:19.569Z,4.93
2023-05-03T15:59:46.600Z,7.35
2023-05-03T16:02:13.117Z,6.55
2023-05-03T16:04:39.641Z,8.25
2023-05-03T16:07:07.002Z,7.13
2023-05-03T16:09:34.583Z,6.78
2023-05-03T16:12:02.906Z,4.68
2023-05-03T16:14:29.432Z,5.32
2023-05-03T16:16:55.959Z,5.78
2023-05-03T16:19:23.104Z,5.20
2023-05-03T16:21:49.843Z,6.43
2023-05-03T16:24:16.498Z,5.80
2023-05-03T16:26:43.218Z,6.07
2023-05-03T16:29:10.534Z,7.57
2023-05-03T16:31:37.220Z,5.32
2023-05-03T16:34:03.918Z,6.38
2023-05-03T16:36:33.777Z,4.90
2023-05-03T16:39:00.449Z,6.28
2023-05-03T16:41:26.829Z,5.38
2023-05-03T16:43:55.823Z,7.00
2023-05-03T16:46:25.841Z,8.45
2023-05-03T16:48:52.580Z,8.35
2023-05-03T16:51:22.456Z,5.50
2023-05-03T16:53:49.039Z,3.33
2023-05-03T16:56:19.949Z,4.45
2023-05-03T16:58:47.901Z,5.50
2023-05-03T17:01:17.095Z,5.45
2023-05-03T17:03:43.676Z,4.75
2023-05-03T17:06:12.825Z,9.52
2023-05-03T17:08:41.273Z,4.45
2023-05-03T17:11:09.137Z,3.75
2023-05-03T17:13:36.279Z,5.72
2023-05-03T17:16:08.942Z,6.10
2023-05-03T17:18:37.845Z,5.00
2023-05-03T17:21:06.112Z,4.03
2023-05-03T17:23:35.655Z,4.85
2023-05-03T17:26:04.669Z,5.13
2023-05-03T17:28:33.545Z,3.60
2023-05-03T17:31:01.129Z,5.80
2023-05-03T17:33:27.747Z,3.83
2023-05-03T17:35:56.224Z,3.30
2023-05-03T17:38:23.283Z,3.92
2023-05-03T17:40:49.676Z,3.78
2023-05-03T17:43:17.631Z,4.68
2023-05-03T17:45:45.129Z,4.00
2023-05-03T17:48:12.565Z,2.85
2023-05-03T17:50:39.101Z,3.53
2023-05-03T17:53:05.901Z,3.08
2023-05-03T17:55:35.096Z,5.00
2023-05-03T17:58:01.799Z,4.45
2023-05-03T18:00:29.429Z,4.95
2023-05-03T18:02:56.521Z,3.53
2023-05-03T18:05:23.152Z,4.32
2023-05-03T18:07:49.563Z,3.63
2023-05-03T18:10:17.458Z,2.25
2023-05-03T18:12:44.079Z,2.28
2023-05-03T18:15:12.463Z,5.57
2023-05-03T18:17:41.089Z,4.20
2023-05-03T18:20:08.697Z,3.10
2023-05-03T18:22:35.115Z,4.75
2023-05-03T18:25:02.374Z,8.38
2023-05-03T18:27:29.205Z,3.88
2023-05-03T18:29:56.734Z,3.85
2023-05-03T18:32:23.547Z,4.00
2023-05-03T18:34:52.523Z,3.58
2023-05-03T18:37:18.979Z,6.57
2023-05-03T18:39:45.445Z,3.28
2023-05-03T18:42:12.796Z,5.45
2023-05-03T18:44:39.699Z,6.07
2023-05-03T18:47:07.584Z,3.60
2023-05-03T18:49:34.290Z,6.60
2023-05-03T18:52:00.693Z,6.30
2023-05-03T18:54:27.066Z,3.75
2023-05-03T18:56:53.778Z,6.65
2023-05-03T18:59:20.141Z,3.95
2023-05-03T19:01:46.803Z,4.40
2023-05-03T19:04:15.113Z,5.35
2023-05-03T19:06:42.912Z,3.08
2023-05-03T19:09:13.450Z,3.25
2023-05-03T19:11:43.919Z,3.47
2023-05-03T19:14:10.518Z,2.70
2023-05-03T19:16:37.410Z,4.57
2023-05-03T19:19:04.417Z,3.67
2023-05-03T19:21:31.917Z,3.97
2023-05-03T19:23:58.684Z,4.28
2023-05-03T19:26:25.161Z,6.40
2023-05-03T19:28:51.517Z,6.40
2023-05-03T19:31:18.131Z,4.00
2023-05-03T19:33:44.650Z,8.55
2023-05-03T19:36:15.114Z,3.42
2023-05-03T19:38:41.572Z,5.95
2023-05-03T19:41:12.351Z,3.92
2023-05-03T19:43:39.583Z,3.65
2023-05-03T19:46:06.664Z,5.47
2023-05-03T19:48:34.191Z,2.30
2023-05-03T19:51:01.411Z,2.85
2023-05-03T19:53:28.461Z,4.25
2023-05-03T19:55:55.525Z,4.95
2023-05-03T19:58:22.245Z,3.25
2023-05-03T20:00:48.563Z,4.50
2023-05-03T20:03:15.211Z,6.40
2023-05-03T20:05:41.731Z,6.40
2023-05-03T20:08:08.776Z,6.53
2023-05-03T20:10:36.683Z,4.43
2023-05-03T20:13:04.289Z,3.85
2023-05-03T20:15:31.504Z,4.97
2023-05-03T20:17:57.961Z,3.67
2023-05-03T20:20:24.610Z,4.35
2023-05-03T20:22:51.195Z,4.28
2023-05-03T20:25:18.104Z,6.63
2023-05-03T20:27:47.427Z,3.85
2023-05-03T20:30:14.032Z,3.17
2023-05-03T20:32:41.608Z,6.10
2023-05-03T20:35:10.791Z,5.68
2023-05-03T20:37:38.635Z,6.18
2023-05-03T20:40:06.344Z,3.85
2023-05-03T20:42:32.930Z,5.95
2023-05-03T20:44:59.456Z,4.43
2023-05-03T20:47:26.460Z,3.65
2023-05-03T20:49:52.891Z,4.82
2023-05-03T20:52:19.331Z,5.05
2023-05-03T20:54:46.704Z,6.40
2023-05-03T20:57:16.839Z,4.35
2023-05-03T20:59:44.182Z,4.00
2023-05-03T21:02:11.299Z,3.05
2023-05-03T21:04:38.045Z,1.98
2023-05-03T21:07:04.846Z,3.53
2023-05-03T21:09:31.679Z,4.05
2023-05-03T21:11:58.410Z,5.05
2023-05-03T21:14:25.872Z,4.63
2023-05-03T21:16:52.269Z,3.40
2023-05-03T21:19:21.011Z,8.70
2023-05-03T21:21:47.907Z,7.15
2023-05-03T21:24:14.923Z,3.90
2023-05-03T21:26:41.415Z,5.00
2023-05-03T21:29:08.277Z,5.60
2023-05-03T21:31:34.872Z,6.03
2023-05-03T21:34:03.973Z,3.47
2023-05-03T21:36:30.628Z,4.72
2023-05-03T21:38:58.134Z,3.40
2023-05-03T21:41:25.536Z,5.50
2023-05-03T21:43:52.041Z,4.03
2023-05-03T21:46:18.496Z,6.28
2023-05-03T21:48:45.632Z,3.67
2023-05-03T21:51:19.317Z,5.10
2023-05-03T21:53:45.881Z,5.65
2023-05-03T21:56:12.440Z,5.25
2023-05-03T21:58:39.225Z,5.68
2023-05-03T22:01:06.478Z,8.20
2023-05-03T22:03:34.727Z,6.88
2023-05-03T22:06:01.522Z,6.38
2023-05-03T22:08:27.930Z,7.05
2023-05-03T22:10:56.171Z,5.18
2023-05-03T22:13:22.903Z,7.30
2023-05-03T22:15:49.554Z,8.10
2023-05-03T22:18:17.438Z,6.13
2023-05-03T22:20:43.911Z,4.45
2023-05-03T22:23:10.427Z,3.50
2023-05-03T22:25:36.992Z,2.55
2023-05-03T22:28:03.556Z,4.38
2023-05-03T22:30:30.095Z,6.22
2023-05-03T22:32:57.039Z,5.13
2023-05-03T22:35:23.720Z,4.15
2023-05-03T22:37:50.146Z,5.45
2023-05-03T22:40:16.522Z,5.72
2023-05-03T22:42:43.061Z,3.60
2023-05-03T22:45:09.894Z,3.83
2023-05-03T22:47:36.398Z,5.90
2023-05-03T22:50:03.101Z,3.47
2023-05-03T22:52:31.457Z,7.22
2023-05-03T22:54:58.538Z,6.70
2023-05-03T22:57:25.187Z,6.25
2023-05-03T22:59:51.501Z,5.50
2023-05-03T23:02:18.702Z,6.45
2023-05-03T23:04:45.119Z,8.73
2023-05-03T23:07:13.328Z,4.40
2023-05-03T23:09:40.148Z,7.18
2023-05-03T23:12:06.579Z,4.07
2023-05-03T23:14:32.901Z,9.40
2023-05-03T23:16:59.314Z,6.35
2023-05-03T23:19:26.641Z,3.42
2023-05-03T23:21:53.198Z,5.95
2023-05-03T23:24:19.772Z,5.80
2023-05-03T23:26:46.197Z,7.28
2023-05-03T23:29:12.951Z,4.28
2023-05-03T23:31:39.613Z,6.55
2023-05-03T23:34:07.269Z,8.98
2023-05-03T23:36:35.072Z,6.30
2023-05-03T23:39:01.691Z,6.40
2023-05-03T23:41:28.438Z,4.93
2023-05-03T23:43:55.055Z,4.82
2023-05-03T23:46:21.652Z,4.97
2023-05-03T23:48:48.097Z,4.50
2023-05-03T23:51:14.778Z,4.28
2023-05-03T23:53:41.499Z,3.50
2023-05-03T23:56:08.335Z,8.45
2023-05-03T23:58:34.924Z,4.00
